Terminal Aerodrome Forecast
Issued by NWS

Home | Current Version | Previous Version | Text Only | Print | Product List | Glossary Off
Versions: 1 2 3 4 5 6 7 8 9 10 11 12 13 14

016
FTUS43 KTOP 191125
TAFMHK
TAF
KMHK 191125Z 1912/2012 17005KT P6SM SKC WS015/22030KT
     FM191400 19011KT P6SM FEW150
     FM191700 18016G25KT P6SM FEW060 SCT150=

USA.gov is the U.S. government's official web portal to all federal, state and local government web resources and services.